sensor_id;sensor_type;location;lat;lon;timestamp;P1;durP1;ratioP1;P2;durP2;ratioP2
7563;SDS011;3823;53.586;10.040;2023-12-22T00:02:16;18.45;;;4.13;;
7563;SDS011;3823;53.586;10.040;2023-12-22T00:04:42;21.02;;;4.05;;
7563;SDS011;3823;53.586;10.040;2023-12-22T00:07:07;12.00;;;3.13;;
7563;SDS011;3823;53.586;10.040;2023-12-22T00:09:33;11.50;;;2.88;;
7563;SDS011;3823;53.586;10.040;2023-12-22T00:11:58;13.13;;;2.80;;
7563;SDS011;3823;53.586;10.040;2023-12-22T00:14:24;12.27;;;3.55;;
7563;SDS011;3823;53.586;10.040;2023-12-22T00:16:49;13.85;;;2.60;;
7563;SDS011;3823;53.586;10.040;2023-12-22T00:19:15;19.38;;;3.45;;
7563;SDS011;3823;53.586;10.040;2023-12-22T00:21:41;15.30;;;3.78;;
7563;SDS011;3823;53.586;10.040;2023-12-22T00:24:06;14.63;;;3.47;;
7563;SDS011;3823;53.586;10.040;2023-12-22T00:26:32;19.55;;;3.78;;
7563;SDS011;3823;53.586;10.040;2023-12-22T00:28:57;15.15;;;2.88;;
7563;SDS011;3823;53.586;10.040;2023-12-22T00:31:23;10.80;;;3.13;;
7563;SDS011;3823;53.586;10.040;2023-12-22T00:33:48;18.30;;;4.32;;
7563;SDS011;3823;53.586;10.040;2023-12-22T00:36:14;11.18;;;2.42;;
7563;SDS011;3823;53.586;10.040;2023-12-22T00:38:40;17.45;;;3.00;;
7563;SDS011;3823;53.586;10.040;2023-12-22T00:41:05;15.85;;;3.33;;
7563;SDS011;3823;53.586;10.040;2023-12-22T00:43:31;22.08;;;5.82;;
7563;SDS011;3823;53.586;10.040;2023-12-22T00:45:56;7.72;;;2.90;;
7563;SDS011;3823;53.586;10.040;2023-12-22T00:48:22;10.48;;;2.95;;
7563;SDS011;3823;53.586;10.040;2023-12-22T00:50:48;19.55;;;3.42;;
7563;SDS011;3823;53.586;10.040;2023-12-22T00:53:14;21.95;;;3.67;;
7563;SDS011;3823;53.586;10.040;2023-12-22T00:55:39;21.95;;;4.22;;
7563;SDS011;3823;53.586;10.040;2023-12-22T00:58:07;19.30;;;4.55;;
7563;SDS011;3823;53.586;10.040;2023-12-22T01:00:33;21.25;;;3.63;;
7563;SDS011;3823;53.586;10.040;2023-12-22T01:02:58;27.15;;;4.95;;
7563;SDS011;3823;53.586;10.040;2023-12-22T01:05:24;22.52;;;3.65;;
7563;SDS011;3823;53.586;10.040;2023-12-22T01:07:49;14.88;;;3.80;;
7563;SDS011;3823;53.586;10.040;2023-12-22T01:10:15;21.08;;;4.13;;
7563;SDS011;3823;53.586;10.040;2023-12-22T01:12:40;12.50;;;3.35;;
7563;SDS011;3823;53.586;10.040;2023-12-22T01:15:06;12.90;;;3.65;;
7563;SDS011;3823;53.586;10.040;2023-12-22T01:17:32;15.02;;;3.53;;
7563;SDS011;3823;53.586;10.040;2023-12-22T01:19:57;14.48;;;3.30;;
7563;SDS011;3823;53.586;10.040;2023-12-22T01:22:23;11.55;;;2.58;;
7563;SDS011;3823;53.586;10.040;2023-12-22T01:24:48;10.13;;;2.47;;
7563;SDS011;3823;53.586;10.040;2023-12-22T01:27:14;11.88;;;2.13;;
7563;SDS011;3823;53.586;10.040;2023-12-22T01:29:40;7.18;;;1.83;;
7563;SDS011;3823;53.586;10.040;2023-12-22T01:32:05;6.97;;;2.03;;
7563;SDS011;3823;53.586;10.040;2023-12-22T01:34:31;6.15;;;1.77;;
7563;SDS011;3823;53.586;10.040;2023-12-22T01:36:57;6.00;;;2.80;;
7563;SDS011;3823;53.586;10.040;2023-12-22T01:39:22;3.05;;;1.30;;
7563;SDS011;3823;53.586;10.040;2023-12-22T01:41:48;8.85;;;1.45;;
7563;SDS011;3823;53.586;10.040;2023-12-22T01:44:13;5.90;;;0.95;;
7563;SDS011;3823;53.586;10.040;2023-12-22T01:46:39;3.03;;;0.88;;
7563;SDS011;3823;53.586;10.040;2023-12-22T01:49:04;2.58;;;1.02;;
7563;SDS011;3823;53.586;10.040;2023-12-22T01:51:32;3.65;;;1.05;;
7563;SDS011;3823;53.586;10.040;2023-12-22T01:54:00;2.47;;;0.80;;
7563;SDS011;3823;53.586;10.040;2023-12-22T01:56:26;3.60;;;0.70;;
7563;SDS011;3823;53.586;10.040;2023-12-22T01:58:53;2.45;;;0.80;;
7563;SDS011;3823;53.586;10.040;2023-12-22T02:01:23;4.82;;;0.90;;
7563;SDS011;3823;53.586;10.040;2023-12-22T02:03:49;5.53;;;0.70;;
7563;SDS011;3823;53.586;10.040;2023-12-22T02:06:17;2.08;;;0.82;;
7563;SDS011;3823;53.586;10.040;2023-12-22T02:08:44;4.97;;;0.90;;
7563;SDS011;3823;53.586;10.040;2023-12-22T02:11:11;6.97;;;0.90;;
7563;SDS011;3823;53.586;10.040;2023-12-22T02:13:37;2.20;;;0.80;;
7563;SDS011;3823;53.586;10.040;2023-12-22T02:16:26;9.20;;;2.33;;
7563;SDS011;3823;53.586;10.040;2023-12-22T02:19:09;15.45;;;1.35;;
7563;SDS011;3823;53.586;10.040;2023-12-22T02:22:01;8.52;;;1.10;;
7563;SDS011;3823;53.586;10.040;2023-12-22T02:24:31;8.43;;;0.90;;
7563;SDS011;3823;53.586;10.040;2023-12-22T02:27:03;5.68;;;1.48;;
7563;SDS011;3823;53.586;10.040;2023-12-22T02:29:37;9.93;;;1.50;;
7563;SDS011;3823;53.586;10.040;2023-12-22T02:32:07;7.88;;;1.13;;
7563;SDS011;3823;53.586;10.040;2023-12-22T02:34:41;6.40;;;1.20;;
7563;SDS011;3823;53.586;10.040;2023-12-22T02:37:08;9.55;;;1.50;;
7563;SDS011;3823;53.586;10.040;2023-12-22T02:39:35;12.18;;;3.05;;
7563;SDS011;3823;53.586;10.040;2023-12-22T02:42:02;5.07;;;1.20;;
7563;SDS011;3823;53.586;10.040;2023-12-22T02:44:29;5.00;;;2.17;;
7563;SDS011;3823;53.586;10.040;2023-12-22T02:46:55;10.23;;;2.35;;
7563;SDS011;3823;53.586;10.040;2023-12-22T02:49:21;8.68;;;1.45;;
7563;SDS011;3823;53.586;10.040;2023-12-22T02:51:46;4.20;;;0.82;;
7563;SDS011;3823;53.586;10.040;2023-12-22T02:54:12;10.02;;;1.77;;
7563;SDS011;3823;53.586;10.040;2023-12-22T02:56:37;9.50;;;1.98;;
7563;SDS011;3823;53.586;10.040;2023-12-22T02:59:03;8.50;;;1.50;;
7563;SDS011;3823;53.586;10.040;2023-12-22T03:01:28;10.88;;;1.23;;
7563;SDS011;3823;53.586;10.040;2023-12-22T03:03:54;7.38;;;1.95;;
7563;SDS011;3823;53.586;10.040;2023-12-22T03:06:19;5.38;;;0.52;;
7563;SDS011;3823;53.586;10.040;2023-12-22T03:08:45;3.38;;;0.70;;
7563;SDS011;3823;53.586;10.040;2023-12-22T03:11:10;12.50;;;1.15;;
7563;SDS011;3823;53.586;10.040;2023-12-22T03:13:36;1.92;;;0.77;;
7563;SDS011;3823;53.586;10.040;2023-12-22T03:16:01;3.83;;;0.68;;
7563;SDS011;3823;53.586;10.040;2023-12-22T03:18:27;3.28;;;0.77;;
7563;SDS011;3823;53.586;10.040;2023-12-22T03:20:53;2.40;;;0.65;;
7563;SDS011;3823;53.586;10.040;2023-12-22T03:23:18;2.85;;;0.85;;
7563;SDS011;3823;53.586;10.040;2023-12-22T03:25:44;2.80;;;0.95;;
7563;SDS011;3823;53.586;10.040;2023-12-22T03:28:09;3.92;;;0.60;;
7563;SDS011;3823;53.586;10.040;2023-12-22T03:30:36;1.30;;;0.50;;
7563;SDS011;3823;53.586;10.040;2023-12-22T03:33:03;3.35;;;0.60;;
7563;SDS011;3823;53.586;10.040;2023-12-22T03:35:28;7.60;;;0.68;;
7563;SDS011;3823;53.586;10.040;2023-12-22T03:37:54;2.22;;;0.63;;
7563;SDS011;3823;53.586;10.040;2023-12-22T03:40:19;4.25;;;0.57;;
7563;SDS011;3823;53.586;10.040;2023-12-22T03:42:45;2.70;;;0.93;;
7563;SDS011;3823;53.586;10.040;2023-12-22T03:45:10;3.92;;;0.60;;
7563;SDS011;3823;53.586;10.040;2023-12-22T03:47:36;5.20;;;0.63;;
7563;SDS011;3823;53.586;10.040;2023-12-22T03:50:02;4.32;;;0.98;;
7563;SDS011;3823;53.586;10.040;2023-12-22T03:52:27;3.53;;;0.50;;
7563;SDS011;3823;53.586;10.040;2023-12-22T03:54:53;6.15;;;0.93;;
7563;SDS011;3823;53.586;10.040;2023-12-22T03:57:18;3.30;;;1.80;;
7563;SDS011;3823;53.586;10.040;2023-12-22T03:59:44;2.70;;;1.13;;
7563;SDS011;3823;53.586;10.040;2023-12-22T04:02:09;3.15;;;0.60;;
7563;SDS011;3823;53.586;10.040;2023-12-22T04:04:38;9.13;;;1.25;;
7563;SDS011;3823;53.586;10.040;2023-12-22T04:07:04;2.75;;;1.23;;
7563;SDS011;3823;53.586;10.040;2023-12-22T04:09:29;3.08;;;1.23;;
7563;SDS011;3823;53.586;10.040;2023-12-22T04:11:55;9.65;;;1.67;;
7563;SDS011;3823;53.586;10.040;2023-12-22T04:14:20;5.47;;;1.20;;
7563;SDS011;3823;53.586;10.040;2023-12-22T04:16:46;6.22;;;1.17;;
7563;SDS011;3823;53.586;10.040;2023-12-22T04:19:12;8.77;;;1.52;;
7563;SDS011;3823;53.586;10.040;2023-12-22T04:21:37;12.95;;;3.95;;
7563;SDS011;3823;53.586;10.040;2023-12-22T04:24:03;15.60;;;1.83;;
7563;SDS011;3823;53.586;10.040;2023-12-22T04:26:29;10.02;;;1.73;;
7563;SDS011;3823;53.586;10.040;2023-12-22T04:28:55;2.53;;;0.80;;
7563;SDS011;3823;53.586;10.040;2023-12-22T04:31:20;4.65;;;1.27;;
7563;SDS011;3823;53.586;10.040;2023-12-22T04:33:46;4.35;;;1.80;;
7563;SDS011;3823;53.586;10.040;2023-12-22T04:36:11;13.90;;;1.65;;
7563;SDS011;3823;53.586;10.040;2023-12-22T04:38:37;9.18;;;1.70;;
7563;SDS011;3823;53.586;10.040;2023-12-22T04:41:02;5.15;;;2.28;;
7563;SDS011;3823;53.586;10.040;2023-12-22T04:43:28;8.77;;;1.42;;
7563;SDS011;3823;53.586;10.040;2023-12-22T04:45:53;11.27;;;1.85;;
7563;SDS011;3823;53.586;10.040;2023-12-22T04:48:19;3.58;;;1.75;;
7563;SDS011;3823;53.586;10.040;2023-12-22T04:50:44;9.75;;;2.25;;
7563;SDS011;3823;53.586;10.040;2023-12-22T04:53:10;5.50;;;1.40;;
7563;SDS011;3823;53.586;10.040;2023-12-22T04:55:35;5.55;;;1.58;;
7563;SDS011;3823;53.586;10.040;2023-12-22T04:58:01;6.03;;;1.75;;
7563;SDS011;3823;53.586;10.040;2023-12-22T05:00:26;6.75;;;1.83;;
7563;SDS011;3823;53.586;10.040;2023-12-22T05:02:52;9.48;;;1.60;;
7563;SDS011;3823;53.586;10.040;2023-12-22T05:05:17;8.02;;;1.58;;
7563;SDS011;3823;53.586;10.040;2023-12-22T05:07:43;11.65;;;1.88;;
7563;SDS011;3823;53.586;10.040;2023-12-22T05:10:08;16.30;;;3.47;;
7563;SDS011;3823;53.586;10.040;2023-12-22T05:12:34;5.32;;;1.73;;
7563;SDS011;3823;53.586;10.040;2023-12-22T05:15:00;4.57;;;1.50;;
7563;SDS011;3823;53.586;10.040;2023-12-22T05:17:25;8.05;;;1.83;;
7563;SDS011;3823;53.586;10.040;2023-12-22T05:19:51;13.60;;;2.38;;
7563;SDS011;3823;53.586;10.040;2023-12-22T05:22:16;6.95;;;1.30;;
7563;SDS011;3823;53.586;10.040;2023-12-22T05:24:42;11.30;;;1.70;;
7563;SDS011;3823;53.586;10.040;2023-12-22T05:27:07;10.98;;;1.65;;
7563;SDS011;3823;53.586;10.040;2023-12-22T05:29:33;8.57;;;1.42;;
7563;SDS011;3823;53.586;10.040;2023-12-22T05:31:58;4.68;;;0.82;;
7563;SDS011;3823;53.586;10.040;2023-12-22T05:34:24;11.40;;;1.30;;
7563;SDS011;3823;53.586;10.040;2023-12-22T05:36:50;4.85;;;1.30;;
7563;SDS011;3823;53.586;10.040;2023-12-22T05:39:15;9.65;;;1.48;;
7563;SDS011;3823;53.586;10.040;2023-12-22T05:41:41;10.43;;;1.23;;
7563;SDS011;3823;53.586;10.040;2023-12-22T05:44:07;10.93;;;1.95;;
7563;SDS011;3823;53.586;10.040;2023-12-22T05:46:36;12.15;;;1.33;;
7563;SDS011;3823;53.586;10.040;2023-12-22T05:49:03;8.65;;;0.95;;
7563;SDS011;3823;53.586;10.040;2023-12-22T05:51:29;2.50;;;1.10;;
7563;SDS011;3823;53.586;10.040;2023-12-22T05:53:54;3.65;;;1.15;;
7563;SDS011;3823;53.586;10.040;2023-12-22T05:56:20;8.13;;;1.95;;
7563;SDS011;3823;53.586;10.040;2023-12-22T05:58:46;6.90;;;1.13;;
7563;SDS011;3823;53.586;10.040;2023-12-22T06:01:16;6.03;;;1.15;;
7563;SDS011;3823;53.586;10.040;2023-12-22T06:03:43;9.40;;;1.20;;
7563;SDS011;3823;53.586;10.040;2023-12-22T06:06:09;8.30;;;2.03;;
7563;SDS011;3823;53.586;10.040;2023-12-22T06:08:34;3.97;;;1.08;;
7563;SDS011;3823;53.586;10.040;2023-12-22T06:11:00;4.03;;;1.02;;
7563;SDS011;3823;53.586;10.040;2023-12-22T06:13:26;9.75;;;1.08;;
7563;SDS011;3823;53.586;10.040;2023-12-22T06:15:54;8.43;;;1.20;;
7563;SDS011;3823;53.586;10.040;2023-12-22T06:18:19;5.65;;;2.35;;
7563;SDS011;3823;53.586;10.040;2023-12-22T06:20:45;3.25;;;1.15;;
7563;SDS011;3823;53.586;10.040;2023-12-22T06:23:10;7.43;;;2.05;;
7563;SDS011;3823;53.586;10.040;2023-12-22T06:25:36;12.38;;;1.63;;
7563;SDS011;3823;53.586;10.040;2023-12-22T06:28:01;6.57;;;1.75;;
7563;SDS011;3823;53.586;10.040;2023-12-22T06:30:27;9.40;;;1.83;;
7563;SDS011;3823;53.586;10.040;2023-12-22T06:32:52;6.90;;;2.13;;
7563;SDS011;3823;53.586;10.040;2023-12-22T06:35:18;10.10;;;1.33;;
7563;SDS011;3823;53.586;10.040;2023-12-22T06:37:48;5.22;;;3.47;;
7563;SDS011;3823;53.586;10.040;2023-12-22T06:40:17;6.00;;;2.03;;
7563;SDS011;3823;53.586;10.040;2023-12-22T06:42:45;6.72;;;2.25;;
7563;SDS011;3823;53.586;10.040;2023-12-22T06:45:11;7.82;;;1.55;;
7563;SDS011;3823;53.586;10.040;2023-12-22T06:47:36;14.35;;;1.73;;
7563;SDS011;3823;53.586;10.040;2023-12-22T06:50:02;13.15;;;3.80;;
7563;SDS011;3823;53.586;10.040;2023-12-22T06:52:28;5.63;;;1.85;;
7563;SDS011;3823;53.586;10.040;2023-12-22T06:54:55;8.38;;;2.72;;
7563;SDS011;3823;53.586;10.040;2023-12-22T06:57:21;8.77;;;2.40;;
7563;SDS011;3823;53.586;10.040;2023-12-22T06:59:47;7.25;;;1.92;;
7563;SDS011;3823;53.586;10.040;2023-12-22T07:02:14;12.65;;;2.88;;
7563;SDS011;3823;53.586;10.040;2023-12-22T07:07:47;13.20;;;2.25;;
7563;SDS011;3823;53.586;10.040;2023-12-22T07:10:13;10.10;;;2.78;;
7563;SDS011;3823;53.586;10.040;2023-12-22T07:12:38;14.43;;;3.40;;
7563;SDS011;3823;53.586;10.040;2023-12-22T07:15:05;9.98;;;2.75;;
7563;SDS011;3823;53.586;10.040;2023-12-22T07:17:34;16.85;;;3.50;;
7563;SDS011;3823;53.586;10.040;2023-12-22T07:20:00;15.13;;;3.42;;
7563;SDS011;3823;53.586;10.040;2023-12-22T07:22:28;18.83;;;4.55;;
7563;SDS011;3823;53.586;10.040;2023-12-22T07:24:54;24.88;;;5.22;;
7563;SDS011;3823;53.586;10.040;2023-12-22T07:27:20;14.65;;;3.85;;
7563;SDS011;3823;53.586;10.040;2023-12-22T07:29:46;9.68;;;4.18;;
7563;SDS011;3823;53.586;10.040;2023-12-22T07:32:11;14.93;;;3.05;;
7563;SDS011;3823;53.586;10.040;2023-12-22T07:34:37;19.77;;;3.50;;
7563;SDS011;3823;53.586;10.040;2023-12-22T07:37:03;13.80;;;3.30;;
7563;SDS011;3823;53.586;10.040;2023-12-22T07:39:29;15.60;;;2.42;;
7563;SDS011;3823;53.586;10.040;2023-12-22T07:41:55;14.90;;;4.00;;
7563;SDS011;3823;53.586;10.040;2023-12-22T07:44:21;17.77;;;3.00;;
7563;SDS011;3823;53.586;10.040;2023-12-22T07:46:55;17.08;;;3.58;;
7563;SDS011;3823;53.586;10.040;2023-12-22T07:49:24;15.00;;;3.42;;
7563;SDS011;3823;53.586;10.040;2023-12-22T07:51:52;13.52;;;2.25;;
7563;SDS011;3823;53.586;10.040;2023-12-22T07:54:18;11.93;;;3.40;;
7563;SDS011;3823;53.586;10.040;2023-12-22T07:56:43;11.50;;;2.30;;
7563;SDS011;3823;53.586;10.040;2023-12-22T07:59:09;13.98;;;2.78;;
7563;SDS011;3823;53.586;10.040;2023-12-22T08:01:35;15.10;;;3.13;;
7563;SDS011;3823;53.586;10.040;2023-12-22T08:04:00;16.40;;;4.28;;
7563;SDS011;3823;53.586;10.040;2023-12-22T08:06:26;9.23;;;3.53;;
7563;SDS011;3823;53.586;10.040;2023-12-22T08:08:51;8.18;;;2.30;;
7563;SDS011;3823;53.586;10.040;2023-12-22T08:11:17;11.48;;;1.90;;
7563;SDS011;3823;53.586;10.040;2023-12-22T08:13:44;9.02;;;1.65;;
7563;SDS011;3823;53.586;10.040;2023-12-22T08:16:10;9.05;;;1.48;;
7563;SDS011;3823;53.586;10.040;2023-12-22T08:18:35;5.32;;;1.65;;
7563;SDS011;3823;53.586;10.040;2023-12-22T08:21:01;6.78;;;1.58;;
7563;SDS011;3823;53.586;10.040;2023-12-22T08:23:27;8.30;;;1.70;;
7563;SDS011;3823;53.586;10.040;2023-12-22T08:25:52;7.88;;;1.88;;
7563;SDS011;3823;53.586;10.040;2023-12-22T08:28:18;5.35;;;2.00;;
7563;SDS011;3823;53.586;10.040;2023-12-22T08:30:43;10.73;;;1.48;;
7563;SDS011;3823;53.586;10.040;2023-12-22T08:33:09;7.85;;;3.88;;
7563;SDS011;3823;53.586;10.040;2023-12-22T08:35:34;7.32;;;1.50;;
7563;SDS011;3823;53.586;10.040;2023-12-22T08:38:00;10.57;;;1.90;;
7563;SDS011;3823;53.586;10.040;2023-12-22T08:40:25;9.07;;;1.73;;
7563;SDS011;3823;53.586;10.040;2023-12-22T08:42:51;7.00;;;2.30;;
7563;SDS011;3823;53.586;10.040;2023-12-22T08:45:25;8.43;;;2.00;;
7563;SDS011;3823;53.586;10.040;2023-12-22T08:47:54;15.73;;;4.20;;
7563;SDS011;3823;53.586;10.040;2023-12-22T08:50:20;15.00;;;2.70;;
7563;SDS011;3823;53.586;10.040;2023-12-22T08:52:46;17.95;;;1.90;;
7563;SDS011;3823;53.586;10.040;2023-12-22T08:55:12;12.05;;;2.17;;
7563;SDS011;3823;53.586;10.040;2023-12-22T08:57:37;11.77;;;2.22;;
7563;SDS011;3823;53.586;10.040;2023-12-22T09:00:04;12.27;;;2.22;;
7563;SDS011;3823;53.586;10.040;2023-12-22T09:02:30;8.75;;;1.75;;
7563;SDS011;3823;53.586;10.040;2023-12-22T09:04:56;6.68;;;1.30;;
7563;SDS011;3823;53.586;10.040;2023-12-22T09:07:22;11.23;;;1.25;;
7563;SDS011;3823;53.586;10.040;2023-12-22T09:09:48;8.60;;;1.80;;
7563;SDS011;3823;53.586;10.040;2023-12-22T09:12:16;7.43;;;1.33;;
7563;SDS011;3823;53.586;10.040;2023-12-22T09:14:41;3.85;;;1.05;;
7563;SDS011;3823;53.586;10.040;2023-12-22T09:17:07;6.43;;;1.27;;
7563;SDS011;3823;53.586;10.040;2023-12-22T09:19:33;4.68;;;1.65;;
7563;SDS011;3823;53.586;10.040;2023-12-22T09:21:59;13.68;;;2.03;;
7563;SDS011;3823;53.586;10.040;2023-12-22T09:24:24;7.82;;;1.40;;
7563;SDS011;3823;53.586;10.040;2023-12-22T09:26:50;5.90;;;1.48;;
7563;SDS011;3823;53.586;10.040;2023-12-22T09:29:16;5.10;;;1.38;;
7563;SDS011;3823;53.586;10.040;2023-12-22T09:31:42;10.25;;;1.60;;
7563;SDS011;3823;53.586;10.040;2023-12-22T09:34:07;3.15;;;0.90;;
7563;SDS011;3823;53.586;10.040;2023-12-22T09:36:33;3.80;;;1.20;;
7563;SDS011;3823;53.586;10.040;2023-12-22T09:38:58;4.70;;;1.02;;
7563;SDS011;3823;53.586;10.040;2023-12-22T09:41:24;5.97;;;1.50;;
7563;SDS011;3823;53.586;10.040;2023-12-22T09:43:50;6.57;;;1.83;;
7563;SDS011;3823;53.586;10.040;2023-12-22T09:46:18;5.35;;;1.88;;
7563;SDS011;3823;53.586;10.040;2023-12-22T09:48:46;3.25;;;1.27;;
7563;SDS011;3823;53.586;10.040;2023-12-22T09:51:14;7.50;;;2.00;;
7563;SDS011;3823;53.586;10.040;2023-12-22T09:53:42;6.30;;;1.27;;
7563;SDS011;3823;53.586;10.040;2023-12-22T09:56:10;4.15;;;1.83;;
7563;SDS011;3823;53.586;10.040;2023-12-22T09:58:36;11.93;;;1.85;;
7563;SDS011;3823;53.586;10.040;2023-12-22T10:01:03;8.07;;;2.10;;
7563;SDS011;3823;53.586;10.040;2023-12-22T10:03:30;5.88;;;1.45;;
7563;SDS011;3823;53.586;10.040;2023-12-22T10:05:58;10.65;;;1.70;;
7563;SDS011;3823;53.586;10.040;2023-12-22T10:08:25;13.40;;;2.47;;
7563;SDS011;3823;53.586;10.040;2023-12-22T10:10:52;6.90;;;1.70;;
7563;SDS011;3823;53.586;10.040;2023-12-22T10:13:19;6.03;;;1.55;;
7563;SDS011;3823;53.586;10.040;2023-12-22T10:15:44;8.15;;;1.80;;
7563;SDS011;3823;53.586;10.040;2023-12-22T10:18:12;5.63;;;2.30;;
7563;SDS011;3823;53.586;10.040;2023-12-22T10:20:38;21.88;;;4.28;;
7563;SDS011;3823;53.586;10.040;2023-12-22T10:23:04;11.40;;;2.25;;
7563;SDS011;3823;53.586;10.040;2023-12-22T10:25:30;10.98;;;2.30;;
7563;SDS011;3823;53.586;10.040;2023-12-22T10:27:56;9.13;;;2.30;;
7563;SDS011;3823;53.586;10.040;2023-12-22T10:30:24;4.80;;;1.60;;
7563;SDS011;3823;53.586;10.040;2023-12-22T10:32:53;7.88;;;2.30;;
7563;SDS011;3823;53.586;10.040;2023-12-22T10:35:21;9.13;;;2.88;;
7563;SDS011;3823;53.586;10.040;2023-12-22T10:37:47;13.00;;;2.10;;
7563;SDS011;3823;53.586;10.040;2023-12-22T10:40:13;10.85;;;1.85;;
7563;SDS011;3823;53.586;10.040;2023-12-22T10:42:42;18.75;;;3.28;;
7563;SDS011;3823;53.586;10.040;2023-12-22T10:45:08;6.88;;;2.13;;
7563;SDS011;3823;53.586;10.040;2023-12-22T10:47:38;10.32;;;1.80;;
7563;SDS011;3823;53.586;10.040;2023-12-22T10:50:05;8.30;;;2.72;;
7563;SDS011;3823;53.586;10.040;2023-12-22T10:52:31;14.65;;;3.75;;
7563;SDS011;3823;53.586;10.040;2023-12-22T10:54:57;9.20;;;4.00;;
7563;SDS011;3823;53.586;10.040;2023-12-22T10:57:23;12.23;;;2.65;;
7563;SDS011;3823;53.586;10.040;2023-12-22T10:59:48;8.77;;;1.90;;
7563;SDS011;3823;53.586;10.040;2023-12-22T11:02:16;10.50;;;2.15;;
7563;SDS011;3823;53.586;10.040;2023-12-22T11:04:50;5.38;;;1.35;;
7563;SDS011;3823;53.586;10.040;2023-12-22T11:07:29;17.45;;;1.83;;
7563;SDS011;3823;53.586;10.040;2023-12-22T11:10:02;10.40;;;2.13;;
7563;SDS011;3823;53.586;10.040;2023-12-22T11:12:29;16.33;;;2.90;;
7563;SDS011;3823;53.586;10.040;2023-12-22T11:14:57;9.32;;;2.80;;
7563;SDS011;3823;53.586;10.040;2023-12-22T11:17:23;11.02;;;1.85;;
7563;SDS011;3823;53.586;10.040;2023-12-22T11:19:49;11.38;;;1.92;;
7563;SDS011;3823;53.586;10.040;2023-12-22T11:22:17;9.80;;;2.40;;
7563;SDS011;3823;53.586;10.040;2023-12-22T11:24:47;9.20;;;2.03;;
7563;SDS011;3823;53.586;10.040;2023-12-22T11:27:17;11.10;;;1.65;;
7563;SDS011;3823;53.586;10.040;2023-12-22T11:29:47;4.78;;;1.63;;
7563;SDS011;3823;53.586;10.040;2023-12-22T11:32:14;8.13;;;1.65;;
7563;SDS011;3823;53.586;10.040;2023-12-22T11:34:42;7.53;;;1.95;;
7563;SDS011;3823;53.586;10.040;2023-12-22T11:37:10;8.75;;;1.35;;
7563;SDS011;3823;53.586;10.040;2023-12-22T11:39:37;12.43;;;2.22;;
7563;SDS011;3823;53.586;10.040;2023-12-22T11:42:04;3.67;;;1.35;;
7563;SDS011;3823;53.586;10.040;2023-12-22T11:44:31;5.80;;;1.65;;
7563;SDS011;3823;53.586;10.040;2023-12-22T11:47:07;8.20;;;1.65;;
7563;SDS011;3823;53.586;10.040;2023-12-22T11:49:37;15.50;;;2.72;;
7563;SDS011;3823;53.586;10.040;2023-12-22T11:59:55;9.68;;;1.65;;
7563;SDS011;3823;53.586;10.040;2023-12-22T12:02:21;7.07;;;1.52;;
7563;SDS011;3823;53.586;10.040;2023-12-22T12:04:50;9.80;;;1.92;;
7563;SDS011;3823;53.586;10.040;2023-12-22T12:10:10;6.22;;;1.73;;
7563;SDS011;3823;53.586;10.040;2023-12-22T12:12:37;10.18;;;1.73;;
7563;SDS011;3823;53.586;10.040;2023-12-22T12:15:09;5.07;;;1.98;;
7563;SDS011;3823;53.586;10.040;2023-12-22T12:17:42;12.57;;;1.92;;
7563;SDS011;3823;53.586;10.040;2023-12-22T12:20:11;8.57;;;2.17;;
7563;SDS011;3823;53.586;10.040;2023-12-22T12:22:37;10.90;;;1.50;;
7563;SDS011;3823;53.586;10.040;2023-12-22T12:25:08;8.50;;;2.47;;
7563;SDS011;3823;53.586;10.040;2023-12-22T12:27:35;5.72;;;2.10;;
7563;SDS011;3823;53.586;10.040;2023-12-22T12:30:06;7.07;;;1.95;;
7563;SDS011;3823;53.586;10.040;2023-12-22T12:32:36;7.63;;;2.13;;
7563;SDS011;3823;53.586;10.040;2023-12-22T12:35:02;8.77;;;2.60;;
7563;SDS011;3823;53.586;10.040;2023-12-22T12:37:29;4.47;;;1.50;;
7563;SDS011;3823;53.586;10.040;2023-12-22T12:39:55;11.27;;;2.50;;
7563;SDS011;3823;53.586;10.040;2023-12-22T12:42:27;9.40;;;2.17;;
7563;SDS011;3823;53.586;10.040;2023-12-22T12:44:55;14.98;;;2.63;;
7563;SDS011;3823;53.586;10.040;2023-12-22T12:47:21;8.25;;;1.90;;
7563;SDS011;3823;53.586;10.040;2023-12-22T12:49:46;11.00;;;2.67;;
7563;SDS011;3823;53.586;10.040;2023-12-22T12:52:21;8.70;;;2.55;;
7563;SDS011;3823;53.586;10.040;2023-12-22T12:54:46;16.88;;;2.70;;
7563;SDS011;3823;53.586;10.040;2023-12-22T12:57:15;14.80;;;3.50;;
7563;SDS011;3823;53.586;10.040;2023-12-22T12:59:44;7.32;;;2.78;;
7563;SDS011;3823;53.586;10.040;2023-12-22T13:02:14;11.10;;;2.53;;
7563;SDS011;3823;53.586;10.040;2023-12-22T13:04:41;9.75;;;1.92;;
7563;SDS011;3823;53.586;10.040;2023-12-22T13:07:07;6.35;;;1.80;;
7563;SDS011;3823;53.586;10.040;2023-12-22T13:09:35;9.80;;;2.17;;
7563;SDS011;3823;53.586;10.040;2023-12-22T13:12:01;10.45;;;2.50;;
7563;SDS011;3823;53.586;10.040;2023-12-22T13:14:28;10.63;;;1.75;;
7563;SDS011;3823;53.586;10.040;2023-12-22T13:16:54;10.65;;;2.17;;
7563;SDS011;3823;53.586;10.040;2023-12-22T13:19:24;14.15;;;2.38;;
7563;SDS011;3823;53.586;10.040;2023-12-22T13:21:51;11.13;;;2.70;;
7563;SDS011;3823;53.586;10.040;2023-12-22T13:24:18;9.55;;;1.95;;
7563;SDS011;3823;53.586;10.040;2023-12-22T13:26:44;44.20;;;3.70;;
7563;SDS011;3823;53.586;10.040;2023-12-22T13:29:10;8.95;;;2.25;;
7563;SDS011;3823;53.586;10.040;2023-12-22T13:31:37;9.73;;;2.45;;
7563;SDS011;3823;53.586;10.040;2023-12-22T13:34:16;8.95;;;1.30;;
7563;SDS011;3823;53.586;10.040;2023-12-22T13:36:42;6.85;;;2.92;;
7563;SDS011;3823;53.586;10.040;2023-12-22T13:39:08;13.30;;;2.08;;
7563;SDS011;3823;53.586;10.040;2023-12-22T13:41:42;9.85;;;2.47;;
7563;SDS011;3823;53.586;10.040;2023-12-22T13:44:11;7.45;;;2.20;;
7563;SDS011;3823;53.586;10.040;2023-12-22T13:46:37;9.50;;;2.10;;
7563;SDS011;3823;53.586;10.040;2023-12-22T13:49:06;12.98;;;2.53;;
7563;SDS011;3823;53.586;10.040;2023-12-22T13:51:41;19.52;;;4.03;;
7563;SDS011;3823;53.586;10.040;2023-12-22T13:54:07;15.43;;;2.40;;
7563;SDS011;3823;53.586;10.040;2023-12-22T13:56:34;12.80;;;2.92;;
7563;SDS011;3823;53.586;10.040;2023-12-22T13:59:00;4.07;;;1.02;;
7563;SDS011;3823;53.586;10.040;2023-12-22T14:01:26;10.95;;;1.50;;
7563;SDS011;3823;53.586;10.040;2023-12-22T14:03:52;13.77;;;1.73;;
7563;SDS011;3823;53.586;10.040;2023-12-22T14:06:18;4.63;;;2.10;;
7563;SDS011;3823;53.586;10.040;2023-12-22T14:08:44;4.85;;;1.65;;
7563;SDS011;3823;53.586;10.040;2023-12-22T14:11:10;9.40;;;1.40;;
7563;SDS011;3823;53.586;10.040;2023-12-22T14:13:35;10.18;;;2.20;;
7563;SDS011;3823;53.586;10.040;2023-12-22T14:16:05;13.02;;;2.63;;
7563;SDS011;3823;53.586;10.040;2023-12-22T14:18:31;4.70;;;1.65;;
7563;SDS011;3823;53.586;10.040;2023-12-22T14:20:57;5.65;;;1.58;;
7563;SDS011;3823;53.586;10.040;2023-12-22T14:23:23;8.18;;;1.77;;
7563;SDS011;3823;53.586;10.040;2023-12-22T14:25:49;13.85;;;2.00;;
7563;SDS011;3823;53.586;10.040;2023-12-22T14:28:15;3.63;;;1.33;;
7563;SDS011;3823;53.586;10.040;2023-12-22T14:30:40;5.68;;;2.38;;
7563;SDS011;3823;53.586;10.040;2023-12-22T14:33:06;12.10;;;2.03;;
7563;SDS011;3823;53.586;10.040;2023-12-22T14:35:32;12.82;;;2.88;;
7563;SDS011;3823;53.586;10.040;2023-12-22T14:37:57;6.60;;;0.98;;
7563;SDS011;3823;53.586;10.040;2023-12-22T14:40:23;8.02;;;1.50;;
7563;SDS011;3823;53.586;10.040;2023-12-22T14:42:50;11.32;;;1.58;;
7563;SDS011;3823;53.586;10.040;2023-12-22T14:45:15;10.18;;;3.33;;
7563;SDS011;3823;53.586;10.040;2023-12-22T14:47:41;7.15;;;1.23;;
7563;SDS011;3823;53.586;10.040;2023-12-22T14:50:06;5.18;;;1.67;;
7563;SDS011;3823;53.586;10.040;2023-12-22T14:52:32;7.40;;;1.70;;
7563;SDS011;3823;53.586;10.040;2023-12-22T14:54:58;12.82;;;2.10;;
7563;SDS011;3823;53.586;10.040;2023-12-22T14:57:25;7.35;;;1.42;;
7563;SDS011;3823;53.586;10.040;2023-12-22T14:59:51;3.45;;;1.00;;
7563;SDS011;3823;53.586;10.040;2023-12-22T15:02:17;10.45;;;1.90;;
7563;SDS011;3823;53.586;10.040;2023-12-22T15:04:42;2.53;;;0.90;;
7563;SDS011;3823;53.586;10.040;2023-12-22T15:07:08;5.90;;;1.13;;